Time,TemperatureF,DewpointF,PressureIn,WindDirection,WindDirectionDegrees,WindSpeedMPH,WindSpeedGustMPH,Humidity,HourlyPrecipIn,Conditions,Clouds,dailyrainin,SoftwareType,DateUTC
2013-05-27 00:01:00,66.8,12.6,29.97,SE,135,0.4,0.4,12,0.00,,---,0.00,VWS V14.01,2013-05-27 06:01:00,
2013-05-27 00:06:00,66.6,12.4,29.96,SE,135,0.2,0.2,12,0.00,,---,0.00,VWS V14.01,2013-05-27 06:06:00,
2013-05-27 00:11:00,66.4,10.3,29.96,SE,135,0.2,0.2,11,0.00,,---,0.00,VWS V14.01,2013-05-27 06:11:00,
2013-05-27 00:16:00,66.2,12.1,29.96,SE,135,0.4,0.4,12,0.00,,---,0.00,VWS V14.01,2013-05-27 06:16:00,
2013-05-27 00:21:00,66.2,12.1,29.96,SE,135,0.4,0.4,12,0.00,,---,0.00,VWS V14.01,2013-05-27 06:21:00,
2013-05-27 00:26:00,65.9,11.9,29.97,SE,135,0.4,0.4,12,0.00,,---,0.00,VWS V14.01,2013-05-27 06:26:00,
2013-05-27 00:31:00,65.9,9.9,29.97,SE,135,0.4,0.4,11,0.00,,---,0.00,VWS V14.01,2013-05-27 06:31:00,
2013-05-27 00:36:00,65.9,11.9,29.97,SE,135,0.2,0.2,12,0.00,,---,0.00,VWS V14.01,2013-05-27 06:36:00,
2013-05-27 00:41:00,65.5,11.6,29.97,SE,135,0.2,0.2,12,0.00,,---,0.00,VWS V14.01,2013-05-27 06:41:00,
2013-05-27 00:46:00,65.5,11.6,29.97,SE,135,0.7,0.7,12,0.00,,---,0.00,VWS V14.01,2013-05-27 06:46:00,
2013-05-27 00:51:00,65.5,11.6,29.97,SE,135,0.9,0.9,12,0.00,,---,0.00,VWS V14.01,2013-05-27 06:51:00,
2013-05-27 00:56:00,65.2,11.3,29.97,SE,135,0.4,0.4,12,0.00,,---,0.00,VWS V14.01,2013-05-27 06:56:00,
2013-05-27 01:01:00,65.2,9.4,29.98,SE,135,0.4,0.4,11,0.00,,---,0.00,VWS V14.01,2013-05-27 07:01:00,
2013-05-27 01:06:00,65.2,9.4,29.97,SE,135,0.2,0.2,11,0.00,,---,0.00,VWS V14.01,2013-05-27 07:06:00,
2013-05-27 01:11:00,65.0,9.2,29.98,SE,135,0.4,0.4,11,0.00,,---,0.00,VWS V14.01,2013-05-27 07:11:00,
2013-05-27 01:16:00,64.6,10.9,29.98,SE,135,0.0,0.0,12,0.00,,---,0.00,VWS V14.01,2013-05-27 07:16:00,
2013-05-27 01:21:00,64.4,10.7,29.97,ESE,112,0.2,0.2,12,0.00,,---,0.00,VWS V14.01,2013-05-27 07:21:00,
2013-05-27 01:26:00,64.1,10.5,29.97,SE,135,0.0,0.0,12,0.00,,---,0.00,VWS V14.01,2013-05-27 07:26:00,
2013-05-27 01:31:00,63.9,10.3,29.98,ESE,112,0.2,0.2,12,0.00,,---,0.00,VWS V14.01,2013-05-27 07:31:00,
2013-05-27 01:36:00,63.7,10.2,29.97,ESE,112,0.4,0.4,12,0.00,,---,0.00,VWS V14.01,2013-05-27 07:36:00,
2013-05-27 01:41:00,63.5,10.0,29.97,East,90,0.4,0.4,12,0.00,,---,0.00,VWS V14.01,2013-05-27 07:41:00,
2013-05-27 01:46:00,63.5,10.0,29.97,ESE,112,0.0,0.0,12,0.00,,---,0.00,VWS V14.01,2013-05-27 07:46:00,
2013-05-27 01:51:00,63.5,10.0,29.97,East,90,0.7,0.7,12,0.00,,---,0.00,VWS V14.01,2013-05-27 07:51:00,
2013-05-27 01:56:00,63.4,9.9,29.97,ESE,112,0.0,0.0,12,0.00,,---,0.00,VWS V14.01,2013-05-27 07:56:00,
2013-05-27 02:01:00,63.0,9.6,29.97,ENE,68,1.8,1.8,12,0.00,,---,0.00,VWS V14.01,2013-05-27 08:01:00,
2013-05-27 02:06:00,63.0,9.6,29.97,East,90,0.0,0.0,12,0.00,,---,0.00,VWS V14.01,2013-05-27 08:06:00,
2013-05-27 02:11:00,62.5,9.2,29.97,ESE,112,0.2,0.2,12,0.00,,---,0.00,VWS V14.01,2013-05-27 08:11:00,
2013-05-27 02:16:00,62.3,9.1,29.97,SE,135,0.2,0.2,12,0.00,,---,0.00,VWS V14.01,2013-05-27 08:16:00,
2013-05-27 02:21:00,62.5,9.2,29.97,SE,135,0.4,0.4,12,0.00,,---,0.00,VWS V14.01,2013-05-27 08:21:00,
2013-05-27 02:26:00,62.6,9.3,29.97,SE,135,0.0,0.0,12,0.00,,---,0.00,VWS V14.01,2013-05-27 08:26:00,
2013-05-27 02:31:00,62.3,9.1,29.97,SE,135,0.4,0.4,12,0.00,,---,0.00,VWS V14.01,2013-05-27 08:31:00,
2013-05-27 02:36:00,62.3,9.1,29.97,SE,135,0.2,0.2,12,0.00,,---,0.00,VWS V14.01,2013-05-27 08:36:00,
2013-05-27 02:41:00,61.7,13.6,29.97,ENE,68,0.0,0.0,15,0.00,,---,0.00,VWS V14.01,2013-05-27 08:41:00,
2013-05-27 02:46:00,61.0,13.0,29.98,ENE,68,0.4,0.4,15,0.00,,---,0.00,VWS V14.01,2013-05-27 08:46:00,
2013-05-27 02:51:00,60.8,12.9,29.97,East,90,0.0,0.0,15,0.00,,---,0.00,VWS V14.01,2013-05-27 08:51:00,
2013-05-27 02:56:00,60.7,12.8,29.97,East,90,0.4,0.4,15,0.00,,---,0.00,VWS V14.01,2013-05-27 08:56:00,
2013-05-27 03:01:00,60.8,9.7,29.97,ESE,112,0.4,0.4,13,0.00,,---,0.00,VWS V14.01,2013-05-27 09:01:00,
2013-05-27 03:06:00,61.0,9.8,29.97,ESE,112,0.0,0.0,13,0.00,,---,0.00,VWS V14.01,2013-05-27 09:06:00,
2013-05-27 03:11:00,60.8,7.9,29.97,East,90,1.1,1.1,12,0.00,,---,0.00,VWS V14.01,2013-05-27 09:11:00,
2013-05-27 03:16:00,61.2,8.2,29.97,ESE,112,0.4,0.4,12,0.00,,---,0.00,VWS V14.01,2013-05-27 09:16:00,
2013-05-27 03:21:00,61.4,8.4,29.97,East,90,0.0,0.0,12,0.00,,---,0.00,VWS V14.01,2013-05-27 09:21:00,
2013-05-27 03:26:00,60.7,7.8,29.98,East,90,0.0,0.0,12,0.00,,---,0.00,VWS V14.01,2013-05-27 09:26:00,
2013-05-27 03:31:00,60.5,7.7,29.98,ESE,112,0.0,0.0,12,0.00,,---,0.00,VWS V14.01,2013-05-27 09:31:00,
2013-05-27 03:36:00,59.9,9.0,29.98,ESE,112,0.0,0.0,13,0.00,,---,0.00,VWS V14.01,2013-05-27 09:36:00,
2013-05-27 03:41:00,60.5,9.4,29.98,South,180,0.0,0.0,13,0.00,,---,0.00,VWS V14.01,2013-05-27 09:41:00,
2013-05-27 03:46:00,60.5,9.4,29.97,SE,135,0.0,0.0,13,0.00,,---,0.00,VWS V14.01,2013-05-27 09:46:00,
2013-05-27 03:51:00,60.3,7.5,29.97,ESE,112,0.0,0.0,12,0.00,,---,0.00,VWS V14.01,2013-05-27 09:51:00,
2013-05-27 03:56:00,60.1,9.1,29.98,ESE,112,0.4,0.4,13,0.00,,---,0.00,VWS V14.01,2013-05-27 09:56:00,
2013-05-27 04:01:00,60.3,9.3,29.97,ESE,112,0.2,0.2,13,0.00,,---,0.00,VWS V14.01,2013-05-27 10:01:00,
2013-05-27 04:06:00,60.5,7.7,29.97,ESE,112,0.2,0.2,12,0.00,,---,0.00,VWS V14.01,2013-05-27 10:06:00,
2013-05-27 04:11:00,60.5,7.7,29.97,ESE,112,0.0,0.0,12,0.00,,---,0.00,VWS V14.01,2013-05-27 10:11:00,
2013-05-27 04:16:00,60.1,9.1,29.97,ESE,112,0.0,0.0,13,0.00,,---,0.00,VWS V14.01,2013-05-27 10:16:00,
2013-05-27 04:21:00,59.4,8.6,29.97,ESE,112,0.0,0.0,13,0.00,,---,0.00,VWS V14.01,2013-05-27 10:21:00,
2013-05-27 04:26:00,59.4,10.2,29.97,ESE,112,0.0,0.0,14,0.00,,---,0.00,VWS V14.01,2013-05-27 10:26:00,
2013-05-27 04:31:00,58.9,12.8,29.97,ENE,68,0.0,0.0,16,0.00,,---,0.00,VWS V14.01,2013-05-27 10:31:00,
2013-05-27 04:36:00,58.5,11.0,29.97,East,90,0.0,0.0,15,0.00,,---,0.00,VWS V14.01,2013-05-27 10:36:00,
2013-05-27 04:41:00,58.3,10.9,29.97,East,90,0.0,0.0,15,0.00,,---,0.00,VWS V14.01,2013-05-27 10:41:00,
2013-05-27 04:46:00,58.0,13.4,29.97,ENE,68,0.4,0.4,17,0.00,,---,0.00,VWS V14.01,2013-05-27 10:46:00,
2013-05-27 04:51:00,57.8,11.9,29.97,ENE,68,0.0,0.0,16,0.00,,---,0.00,VWS V14.01,2013-05-27 10:51:00,
2013-05-27 04:56:00,57.6,11.8,29.97,ENE,68,0.0,0.0,16,0.00,,---,0.00,VWS V14.01,2013-05-27 10:56:00,
2013-05-27 05:01:00,57.4,11.6,29.97,ENE,68,0.0,0.0,16,0.00,,---,0.00,VWS V14.01,2013-05-27 11:01:00,
2013-05-27 05:06:00,57.2,12.8,29.97,NNE,22,1.3,1.3,17,0.00,,---,0.00,VWS V14.01,2013-05-27 11:06:00,
2013-05-27 05:11:00,56.9,12.6,29.97,NNW,338,0.4,0.4,17,0.00,,---,0.00,VWS V14.01,2013-05-27 11:11:00,
2013-05-27 05:16:00,57.1,12.7,29.97,NNE,22,1.1,1.1,17,0.00,,---,0.00,VWS V14.01,2013-05-27 11:16:00,
2013-05-27 05:21:00,57.2,12.8,29.97,NNE,22,0.0,0.0,17,0.00,,---,0.00,VWS V14.01,2013-05-27 11:21:00,
2013-05-27 05:26:00,56.9,12.6,29.98,WNW,292,0.4,0.4,17,0.00,,---,0.00,VWS V14.01,2013-05-27 11:26:00,
2013-05-27 05:31:00,56.7,12.4,29.98,ENE,68,1.6,1.6,17,0.00,,---,0.00,VWS V14.01,2013-05-27 11:31:00,
2013-05-27 05:36:00,56.5,12.2,29.98,East,90,0.0,0.0,17,0.00,,---,0.00,VWS V14.01,2013-05-27 11:36:00,
2013-05-27 05:41:00,56.5,12.2,29.98,East,90,0.0,0.0,17,0.00,,---,0.00,VWS V14.01,2013-05-27 11:41:00,
2013-05-27 05:46:00,56.2,12.0,29.98,East,90,0.2,0.2,17,0.00,,---,0.00,VWS V14.01,2013-05-27 11:46:00,
2013-05-27 05:51:00,56.5,12.2,29.98,East,90,0.2,0.2,17,0.00,,---,0.00,VWS V14.01,2013-05-27 11:51:00,
2013-05-27 05:56:00,56.5,12.2,29.98,ESE,112,0.4,0.4,17,0.00,,---,0.00,VWS V14.01,2013-05-27 11:56:00,
2013-05-27 06:01:00,56.5,12.2,29.98,East,90,0.0,0.0,17,0.00,,---,0.00,VWS V14.01,2013-05-27 12:01:00,
2013-05-27 06:05:00,56.5,12.2,29.98,East,90,0.2,0.2,17,0.00,,---,0.00,VWS V14.01,2013-05-27 12:05:00,
2013-05-27 06:10:00,56.7,13.7,29.98,ENE,68,1.1,1.1,18,0.00,,---,0.00,VWS V14.01,2013-05-27 12:10:00,
2013-05-27 06:15:00,57.1,14.0,29.98,NE,45,0.2,0.2,18,0.00,,---,0.00,VWS V14.01,2013-05-27 12:15:00,
2013-05-27 06:20:00,57.1,14.0,29.98,SSW,202,1.1,1.1,18,0.00,,---,0.00,VWS V14.01,2013-05-27 12:20:00,
2013-05-27 06:25:00,57.6,13.1,29.98,South,180,0.0,0.0,17,0.00,,---,0.00,VWS V14.01,2013-05-27 12:25:00,
2013-05-27 06:31:00,58.5,13.9,29.98,ESE,112,0.4,0.4,17,0.00,,---,0.00,VWS V14.01,2013-05-27 12:31:00,
2013-05-27 06:35:00,59.4,15.9,29.98,East,90,0.0,0.0,18,0.00,,---,0.00,VWS V14.01,2013-05-27 12:35:00,
2013-05-27 06:40:00,59.6,16.1,29.98,South,180,0.0,0.0,18,0.00,,---,0.00,VWS V14.01,2013-05-27 12:40:00,
2013-05-27 06:45:00,60.3,16.6,29.98,South,180,0.0,0.0,18,0.00,,---,0.00,VWS V14.01,2013-05-27 12:45:00,
2013-05-27 06:50:00,60.8,17.0,29.99,South,180,0.0,0.0,18,0.00,,---,0.00,VWS V14.01,2013-05-27 12:50:00,
2013-05-27 06:55:00,60.5,18.1,29.99,ESE,112,0.0,0.0,19,0.00,,---,0.00,VWS V14.01,2013-05-27 12:55:00,
2013-05-27 07:00:00,59.8,17.5,29.99,ESE,112,0.0,0.0,19,0.00,,---,0.00,VWS V14.01,2013-05-27 13:00:00,
2013-05-27 07:05:00,59.4,17.1,29.99,ESE,112,0.0,0.0,19,0.00,,---,0.00,VWS V14.01,2013-05-27 13:05:00,
2013-05-27 07:10:00,59.0,16.8,29.99,ESE,112,0.0,0.0,19,0.00,,---,0.00,VWS V14.01,2013-05-27 13:10:00,
2013-05-27 07:15:00,58.9,17.9,29.99,ESE,112,0.0,0.0,20,0.00,,---,0.00,VWS V14.01,2013-05-27 13:15:00,
2013-05-27 07:20:00,58.7,17.8,29.99,ESE,112,0.0,0.0,20,0.00,,---,0.00,VWS V14.01,2013-05-27 13:20:00,
2013-05-27 07:25:00,58.9,19.1,29.99,ESE,112,0.0,0.0,21,0.00,,---,0.00,VWS V14.01,2013-05-27 13:25:00,
2013-05-27 07:30:00,59.0,20.2,29.99,ESE,112,0.0,0.0,22,0.00,,---,0.00,VWS V14.01,2013-05-27 13:30:00,
2013-05-27 07:35:00,59.4,20.6,29.99,ESE,112,0.0,0.0,22,0.00,,---,0.00,VWS V14.01,2013-05-27 13:35:00,
2013-05-27 07:40:00,59.8,22.0,29.99,ESE,112,0.0,0.0,23,0.00,,---,0.00,VWS V14.01,2013-05-27 13:40:00,
2013-05-27 07:45:00,60.1,20.1,29.99,ESE,112,0.0,0.0,21,0.00,,---,0.00,VWS V14.01,2013-05-27 13:45:00,
2013-05-27 07:50:00,60.8,20.6,29.99,ESE,112,0.0,0.0,21,0.00,,---,0.00,VWS V14.01,2013-05-27 13:50:00,
2013-05-27 07:55:00,61.7,21.4,29.99,ESE,112,0.0,0.0,21,0.00,,---,0.00,VWS V14.01,2013-05-27 13:55:00,
2013-05-27 08:00:00,62.3,19.5,29.99,ESE,112,0.0,0.0,19,0.00,,---,0.00,VWS V14.01,2013-05-27 14:00:00,
2013-05-27 08:05:00,62.6,18.5,29.99,ESE,112,0.0,0.0,18,0.00,,---,0.00,VWS V14.01,2013-05-27 14:05:00,
2013-05-27 08:10:00,63.0,18.9,29.99,ESE,112,0.0,0.0,18,0.00,,---,0.00,VWS V14.01,2013-05-27 14:10:00,
2013-05-27 08:15:00,63.0,18.9,29.99,ESE,112,0.0,0.0,18,0.00,,---,0.00,VWS V14.01,2013-05-27 14:15:00,
2013-05-27 08:20:00,63.4,15.0,30.00,SSW,202,0.2,0.2,15,0.00,,---,0.00,VWS V14.01,2013-05-27 14:20:00,
2013-05-27 08:25:00,64.1,18.4,30.00,SSW,202,0.0,0.0,17,0.00,,---,0.00,VWS V14.01,2013-05-27 14:25:00,
2013-05-27 08:30:00,64.6,17.4,30.00,SSW,202,0.4,0.4,16,0.00,,---,0.00,VWS V14.01,2013-05-27 14:30:00,
2013-05-27 08:35:00,64.4,15.8,30.00,SSW,202,0.4,0.4,15,0.00,,---,0.00,VWS V14.01,2013-05-27 14:35:00,
2013-05-27 08:40:00,64.1,17.0,30.00,SSW,202,0.9,0.9,16,0.00,,---,0.00,VWS V14.01,2013-05-27 14:40:00,
2013-05-27 08:45:00,64.1,18.4,30.00,SSW,202,0.0,0.0,17,0.00,,---,0.00,VWS V14.01,2013-05-27 14:45:00,
2013-05-27 08:50:00,64.3,15.7,30.00,SSW,202,0.4,0.4,15,0.00,,---,0.00,VWS V14.01,2013-05-27 14:50:00,
2013-05-27 08:55:00,64.3,15.7,30.00,SW,225,0.2,0.2,15,0.00,,---,0.00,VWS V14.01,2013-05-27 14:55:00,
2013-05-27 09:00:00,64.4,15.8,30.00,SSE,158,0.2,0.2,15,0.00,,---,0.00,VWS V14.01,2013-05-27 15:00:00,
2013-05-27 09:05:00,65.0,17.8,30.00,South,180,0.0,0.0,16,0.00,,---,0.00,VWS V14.01,2013-05-27 15:05:00,
2013-05-27 09:10:00,65.7,16.8,30.00,South,180,0.0,0.0,15,0.00,,---,0.00,VWS V14.01,2013-05-27 15:10:00,
2013-05-27 09:15:00,66.2,17.2,30.01,SSW,202,0.0,0.0,15,0.00,,---,0.00,VWS V14.01,2013-05-27 15:15:00,
2013-05-27 09:20:00,66.8,17.7,30.00,SSW,202,0.4,0.4,15,0.00,,---,0.00,VWS V14.01,2013-05-27 15:20:00,
2013-05-27 09:25:00,67.0,17.9,30.00,SSW,202,0.0,0.0,15,0.00,,---,0.00,VWS V14.01,2013-05-27 15:25:00,
2013-05-27 09:30:00,67.1,17.9,30.00,West,270,0.9,0.9,15,0.00,,---,0.00,VWS V14.01,2013-05-27 15:30:00,
2013-05-27 09:35:00,67.3,14.8,30.00,WSW,248,0.4,0.4,13,0.00,,---,0.00,VWS V14.01,2013-05-27 15:35:00,
2013-05-27 09:40:00,68.0,15.4,30.00,West,270,0.2,0.2,13,0.00,,---,0.00,VWS V14.01,2013-05-27 15:40:00,
2013-05-27 09:45:00,69.1,16.2,29.99,SW,225,0.4,0.4,13,0.00,,---,0.00,VWS V14.01,2013-05-27 15:45:00,
2013-05-27 09:50:00,70.4,15.4,29.99,WSW,248,0.2,0.2,12,0.00,,---,0.00,VWS V14.01,2013-05-27 15:50:00,
2013-05-27 09:55:00,71.6,14.4,29.99,North,0,0.4,0.4,11,0.00,,---,0.00,VWS V14.01,2013-05-27 15:55:00,
2013-05-27 10:00:00,72.0,14.7,29.99,NW,315,2.7,2.7,11,0.00,,---,0.00,VWS V14.01,2013-05-27 16:00:00,
2013-05-27 10:05:00,70.9,13.8,29.99,West,270,0.7,0.7,11,0.00,,---,0.00,VWS V14.01,2013-05-27 16:05:00,
2013-05-27 10:10:00,70.4,13.4,29.98,NNW,338,0.0,0.0,11,0.00,,---,0.00,VWS V14.01,2013-05-27 16:10:00,
2013-05-27 10:15:00,70.2,13.3,29.98,WNW,292,1.1,1.1,11,0.00,,---,0.00,VWS V14.01,2013-05-27 16:15:00,
2013-05-27 10:20:00,70.6,13.6,29.98,SSW,202,0.7,0.7,11,0.00,,---,0.00,VWS V14.01,2013-05-27 16:20:00,
2013-05-27 10:25:00,70.2,13.3,29.98,SW,225,0.9,0.9,11,0.00,,---,0.00,VWS V14.01,2013-05-27 16:25:00,
2013-05-27 10:30:00,70.2,11.1,29.98,SSW,202,0.4,0.4,10,0.00,,---,0.00,VWS V14.01,2013-05-27 16:30:00,
2013-05-27 10:35:00,70.0,15.1,29.98,SE,135,0.4,0.4,12,0.00,,---,0.00,VWS V14.01,2013-05-27 16:35:00,
2013-05-27 10:40:00,70.6,13.6,29.97,South,180,0.0,0.0,11,0.00,,---,0.00,VWS V14.01,2013-05-27 16:40:00,
2013-05-27 10:45:00,70.9,11.6,29.97,SSW,202,0.9,0.9,10,0.00,,---,0.00,VWS V14.01,2013-05-27 16:45:00,
2013-05-27 10:50:00,71.5,14.3,29.97,SW,225,0.0,0.0,11,0.00,,---,0.00,VWS V14.01,2013-05-27 16:50:00,
2013-05-27 10:55:00,72.7,10.6,29.97,East,90,1.3,1.3,9,0.00,,---,0.00,VWS V14.01,2013-05-27 16:55:00,
2013-05-27 11:00:00,73.6,8.7,29.97,NE,45,1.1,1.1,8,0.00,,---,0.00,VWS V14.01,2013-05-27 17:00:00,
2013-05-27 11:05:00,73.4,8.6,29.97,NE,45,0.2,0.2,8,0.00,,---,0.00,VWS V14.01,2013-05-27 17:05:00,
2013-05-27 11:10:00,73.3,13.5,29.97,ESE,112,0.0,0.0,10,0.00,,---,0.00,VWS V14.01,2013-05-27 17:10:00,
2013-05-27 11:15:00,73.6,11.3,29.97,SSE,158,0.4,0.4,9,0.00,,---,0.00,VWS V14.01,2013-05-27 17:15:00,
2013-05-27 11:20:00,73.3,13.5,29.97,SSE,158,0.2,0.2,10,0.00,,---,0.00,VWS V14.01,2013-05-27 17:20:00,
2013-05-27 11:25:00,74.7,14.6,29.97,West,270,1.1,1.1,10,0.00,,---,0.00,VWS V14.01,2013-05-27 17:25:00,
2013-05-27 11:30:00,74.9,9.7,29.97,SSW,202,0.9,0.9,8,0.00,,---,0.00,VWS V14.01,2013-05-27 17:30:00,
2013-05-27 11:35:00,73.8,8.9,29.97,WSW,248,0.9,0.9,8,0.00,,---,0.00,VWS V14.01,2013-05-27 17:35:00,
2013-05-27 11:40:00,73.8,8.9,29.97,North,0,0.4,0.4,8,0.00,,---,0.00,VWS V14.01,2013-05-27 17:40:00,
2013-05-27 11:45:00,74.0,9.0,29.96,WSW,248,0.7,0.7,8,0.00,,---,0.00,VWS V14.01,2013-05-27 17:45:00,
2013-05-27 11:50:00,74.5,9.4,29.96,WSW,248,1.1,1.1,8,0.00,,---,0.00,VWS V14.01,2013-05-27 17:50:00,
2013-05-27 11:55:00,74.7,9.5,29.96,WSW,248,1.6,1.6,8,0.00,,---,0.00,VWS V14.01,2013-05-27 17:55:00,
2013-05-27 12:00:00,74.5,6.4,29.96,SSW,202,1.3,1.3,7,0.00,,---,0.00,VWS V14.01,2013-05-27 18:00:00,
2013-05-27 12:05:00,74.5,9.4,29.96,SW,225,0.4,0.4,8,0.00,,---,0.00,VWS V14.01,2013-05-27 18:05:00,
2013-05-27 12:10:00,74.5,9.4,29.96,SW,225,1.1,1.1,8,0.00,,---,0.00,VWS V14.01,2013-05-27 18:10:00,
2013-05-27 12:15:00,74.5,6.4,29.96,SSW,202,4.5,4.5,7,0.00,,---,0.00,VWS V14.01,2013-05-27 18:15:00,
2013-05-27 12:20:00,74.2,9.1,29.96,SSE,158,0.4,0.4,8,0.00,,---,0.00,VWS V14.01,2013-05-27 18:20:00,
2013-05-27 12:25:00,74.2,9.1,29.96,WNW,292,1.1,1.1,8,0.00,,---,0.00,VWS V14.01,2013-05-27 18:25:00,
2013-05-27 12:30:00,75.2,9.9,29.96,NNW,338,1.1,1.1,8,0.00,,---,0.00,VWS V14.01,2013-05-27 18:30:00,
2013-05-27 12:35:00,76.0,10.5,29.96,SW,225,1.1,1.1,8,0.00,,---,0.00,VWS V14.01,2013-05-27 18:35:00,
2013-05-27 12:40:00,75.2,6.9,29.95,NW,315,0.7,0.7,7,0.00,,---,0.00,VWS V14.01,2013-05-27 18:40:00,
2013-05-27 12:45:00,75.4,10.0,29.96,WSW,248,3.8,3.8,8,0.00,,---,0.00,VWS V14.01,2013-05-27 18:45:00,
2013-05-27 12:50:00,75.2,9.9,29.95,NW,315,1.1,1.1,8,0.00,,---,0.00,VWS V14.01,2013-05-27 18:50:00,
2013-05-27 12:55:00,75.4,10.0,29.95,SE,135,0.2,0.2,8,0.00,,---,0.00,VWS V14.01,2013-05-27 18:55:00,
2013-05-27 13:00:00,75.6,10.2,29.95,SW,225,2.5,2.5,8,0.00,,---,0.00,VWS V14.01,2013-05-27 19:00:00,
2013-05-27 13:05:00,75.6,10.2,29.95,SSW,202,0.4,0.4,8,0.00,,---,0.00,VWS V14.01,2013-05-27 19:05:00,
2013-05-27 13:10:00,76.3,13.4,29.94,West,270,2.0,2.0,9,0.00,,---,0.00,VWS V14.01,2013-05-27 19:10:00,
2013-05-27 13:15:00,77.2,8.4,29.94,NW,315,2.9,2.9,7,0.00,,---,0.00,VWS V14.01,2013-05-27 19:15:00,
2013-05-27 13:20:00,76.9,8.2,29.94,SSW,202,0.7,0.7,7,0.00,,---,0.00,VWS V14.01,2013-05-27 19:20:00,
2013-05-27 13:25:00,76.1,10.6,29.94,SW,225,1.3,1.3,8,0.00,,---,0.00,VWS V14.01,2013-05-27 19:25:00,
2013-05-27 13:30:00,76.5,10.9,29.93,SW,225,2.5,2.5,8,0.00,,---,0.00,VWS V14.01,2013-05-27 19:30:00,
2013-05-27 13:35:00,76.5,10.9,29.94,East,90,0.4,0.4,8,0.00,,---,0.00,VWS V14.01,2013-05-27 19:35:00,
2013-05-27 13:40:00,76.9,11.2,29.93,SW,225,0.2,0.2,8,0.00,,---,0.00,VWS V14.01,2013-05-27 19:40:00,
2013-05-27 13:45:00,77.9,11.9,29.93,South,180,1.6,1.6,8,0.00,,---,0.00,VWS V14.01,2013-05-27 19:45:00,
2013-05-27 13:50:00,77.9,8.9,29.93,SSW,202,2.2,2.2,7,0.00,,---,0.00,VWS V14.01,2013-05-27 19:50:00,
2013-05-27 13:55:00,78.1,9.1,29.93,South,180,1.8,1.8,7,0.00,,---,0.00,VWS V14.01,2013-05-27 19:55:00,
2013-05-27 14:00:00,78.7,9.5,29.93,SSE,158,1.3,1.3,7,0.00,,---,0.00,VWS V14.01,2013-05-27 20:00:00,
2013-05-27 14:05:00,78.8,9.6,29.92,NW,315,1.8,1.8,7,0.00,,---,0.00,VWS V14.01,2013-05-27 20:05:00,
2013-05-27 14:10:00,79.0,9.7,29.92,West,270,3.4,3.4,7,0.00,,---,0.00,VWS V14.01,2013-05-27 20:10:00,
2013-05-27 14:15:00,79.0,9.7,29.92,SSW,202,3.1,3.1,7,0.00,,---,0.00,VWS V14.01,2013-05-27 20:15:00,
2013-05-27 14:20:00,78.8,9.6,29.92,SSW,202,5.4,5.4,7,0.00,,---,0.00,VWS V14.01,2013-05-27 20:20:00,
2013-05-27 14:25:00,77.8,8.8,29.92,SSW,202,3.4,3.4,7,0.00,,---,0.00,VWS V14.01,2013-05-27 20:25:00,
2013-05-27 14:30:00,77.4,8.6,29.92,WSW,248,0.2,0.2,7,0.00,,---,0.00,VWS V14.01,2013-05-27 20:30:00,
2013-05-27 14:35:00,78.7,12.5,29.91,ESE,112,0.2,0.2,8,0.00,,---,0.00,VWS V14.01,2013-05-27 20:35:00,
2013-05-27 14:40:00,79.2,9.9,29.91,SSE,158,1.1,1.1,7,0.00,,---,0.00,VWS V14.01,2013-05-27 20:40:00,
2013-05-27 14:45:00,79.9,10.4,29.91,SSW,202,0.4,0.4,7,0.00,,---,0.00,VWS V14.01,2013-05-27 20:45:00,
2013-05-27 14:50:00,80.3,10.7,29.91,WSW,248,1.1,1.1,7,0.00,,---,0.00,VWS V14.01,2013-05-27 20:50:00,
2013-05-27 14:55:00,80.6,7.5,29.91,SW,225,1.3,1.3,6,0.00,,---,0.00,VWS V14.01,2013-05-27 20:55:00,
2013-05-27 15:00:00,80.1,7.1,29.91,SSW,202,2.0,2.0,6,0.00,,---,0.00,VWS V14.01,2013-05-27 21:00:00,
2013-05-27 15:05:00,80.3,7.2,29.90,SW,225,4.7,4.7,6,0.00,,---,0.00,VWS V14.01,2013-05-27 21:05:00,
2013-05-27 15:10:00,80.8,11.0,29.90,SW,225,1.1,1.1,7,0.00,,---,0.00,VWS V14.01,2013-05-27 21:10:00,
2013-05-27 15:15:00,81.4,8.0,29.90,SSW,202,4.0,4.0,6,0.00,,---,0.00,VWS V14.01,2013-05-27 21:15:00,
2013-05-27 15:20:00,81.4,8.0,29.89,SSW,202,4.0,4.0,6,0.00,,---,0.00,VWS V14.01,2013-05-27 21:20:00,
2013-05-27 15:25:00,82.1,8.6,29.89,WSW,248,2.7,2.7,6,0.00,,---,0.00,VWS V14.01,2013-05-27 21:25:00,
2013-05-27 15:30:00,82.8,5.0,29.89,South,180,2.2,2.2,5,0.00,,---,0.00,VWS V14.01,2013-05-27 21:30:00,
2013-05-27 15:35:00,82.4,4.8,29.89,WSW,248,2.5,2.5,5,0.00,,---,0.00,VWS V14.01,2013-05-27 21:35:00,
2013-05-27 15:40:00,83.5,5.5,29.88,SW,225,4.9,4.9,5,0.00,,---,0.00,VWS V14.01,2013-05-27 21:40:00,
2013-05-27 15:45:00,83.2,5.3,29.88,West,270,5.8,5.8,5,0.00,,---,0.00,VWS V14.01,2013-05-27 21:45:00,
2013-05-27 15:50:00,82.1,4.5,29.88,West,270,4.7,4.7,5,0.00,,---,0.00,VWS V14.01,2013-05-27 21:50:00,
2013-05-27 15:55:00,82.8,5.0,29.88,SW,225,2.5,2.5,5,0.00,,---,0.00,VWS V14.01,2013-05-27 21:55:00,
2013-05-27 16:00:00,82.6,8.9,29.88,SSW,202,4.9,4.9,6,0.00,,---,0.00,VWS V14.01,2013-05-27 22:00:00,
2013-05-27 16:05:00,83.0,5.2,29.88,SSW,202,8.1,8.1,5,0.00,,---,0.00,VWS V14.01,2013-05-27 22:05:00,
2013-05-27 16:10:00,83.0,5.2,29.88,South,180,5.4,5.4,5,0.00,,---,0.00,VWS V14.01,2013-05-27 22:10:00,
2013-05-27 16:15:00,83.5,9.6,29.88,West,270,4.7,6.5,6,0.00,,---,0.00,VWS V14.01,2013-05-27 22:15:00,
2013-05-27 16:20:00,83.7,9.7,29.88,SW,225,2.5,2.5,6,0.00,,---,0.00,VWS V14.01,2013-05-27 22:20:00,
2013-05-27 16:25:00,83.7,9.7,29.87,WNW,292,7.6,7.6,6,0.00,,---,0.00,VWS V14.01,2013-05-27 22:25:00,
2013-05-27 16:30:00,82.4,8.8,29.87,South,180,5.8,5.8,6,0.00,,---,0.00,VWS V14.01,2013-05-27 22:30:00,
2013-05-27 16:35:00,83.0,9.2,29.87,WSW,248,5.1,5.1,6,0.00,,---,0.00,VWS V14.01,2013-05-27 22:35:00,
2013-05-27 16:40:00,82.1,8.6,29.87,WSW,248,5.4,5.4,6,0.00,,---,0.00,VWS V14.01,2013-05-27 22:40:00,
2013-05-27 16:45:00,82.1,12.0,29.86,WNW,292,4.0,4.0,7,0.00,,---,0.00,VWS V14.01,2013-05-27 22:45:00,
2013-05-27 16:50:00,82.4,12.2,29.87,SW,225,4.0,4.0,7,0.00,,---,0.00,VWS V14.01,2013-05-27 22:50:00,
2013-05-27 16:55:00,81.9,11.9,29.86,WSW,248,3.6,3.6,7,0.00,,---,0.00,VWS V14.01,2013-05-27 22:55:00,
2013-05-27 17:00:00,82.1,12.0,29.87,SSE,158,1.6,1.6,7,0.00,,---,0.00,VWS V14.01,2013-05-27 23:00:00,
2013-05-27 17:05:00,83.7,9.7,29.87,West,270,8.5,8.5,6,0.00,,---,0.00,VWS V14.01,2013-05-27 23:05:00,
2013-05-27 17:10:00,83.9,9.8,29.86,WSW,248,9.8,9.8,6,0.00,,---,0.00,VWS V14.01,2013-05-27 23:10:00,
2013-05-27 17:15:00,83.9,13.3,29.86,SW,225,2.9,2.9,7,0.00,,---,0.00,VWS V14.01,2013-05-27 23:15:00,
2013-05-27 17:20:00,84.8,10.5,29.86,SW,225,2.9,2.9,6,0.00,,---,0.00,VWS V14.01,2013-05-27 23:20:00,
2013-05-27 17:25:00,85.3,10.8,29.86,West,270,5.4,5.4,6,0.00,,---,0.00,VWS V14.01,2013-05-27 23:25:00,
2013-05-27 17:30:00,85.0,10.6,29.86,West,270,8.7,8.7,6,0.00,,---,0.00,VWS V14.01,2013-05-27 23:30:00,
2013-05-27 17:35:00,84.4,10.2,29.86,SSW,202,1.3,1.3,6,0.00,,---,0.00,VWS V14.01,2013-05-27 23:35:00,
2013-05-27 17:40:00,84.6,10.3,29.86,WSW,248,2.5,2.5,6,0.00,,---,0.00,VWS V14.01,2013-05-27 23:40:00,
2013-05-27 17:45:00,85.1,10.7,29.85,WNW,292,3.1,3.1,6,0.00,,---,0.00,VWS V14.01,2013-05-27 23:45:00,
2013-05-27 17:50:00,84.6,13.8,29.85,SSW,202,8.3,8.3,7,0.00,,---,0.00,VWS V14.01,2013-05-27 23:50:00,
2013-05-27 17:55:00,83.7,13.2,29.85,West,270,1.3,1.3,7,0.00,,---,0.00,VWS V14.01,2013-05-27 23:55:00,
2013-05-27 18:00:00,84.1,13.4,29.85,SSW,202,6.9,6.9,7,0.00,,---,0.00,VWS V14.01,2013-05-28 00:00:00,
2013-05-27 18:05:00,83.3,12.9,29.85,WSW,248,6.9,6.9,7,0.00,,---,0.00,VWS V14.01,2013-05-28 00:05:00,
2013-05-27 18:10:00,83.2,15.8,29.85,West,270,6.5,6.5,8,0.00,,---,0.00,VWS V14.01,2013-05-28 00:10:00,
2013-05-27 18:15:00,83.3,15.9,29.84,West,270,6.5,6.5,8,0.00,,---,0.00,VWS V14.01,2013-05-28 00:15:00,
2013-05-27 18:20:00,83.3,15.9,29.84,West,270,5.8,5.8,8,0.00,,---,0.00,VWS V14.01,2013-05-28 00:20:00,
2013-05-27 18:25:00,82.8,15.5,29.85,West,270,4.9,4.9,8,0.00,,---,0.00,VWS V14.01,2013-05-28 00:25:00,
2013-05-27 18:30:00,82.1,15.0,29.85,West,270,8.5,8.5,8,0.00,,---,0.00,VWS V14.01,2013-05-28 00:30:00,
2013-05-27 18:35:00,82.1,20.2,29.85,WNW,292,5.6,5.6,10,0.00,,---,0.00,VWS V14.01,2013-05-28 00:35:00,
2013-05-27 18:40:00,82.4,20.4,29.85,NW,315,7.6,7.6,10,0.00,,---,0.00,VWS V14.01,2013-05-28 00:40:00,
2013-05-27 18:45:00,81.5,19.7,29.85,WNW,292,2.2,2.2,10,0.00,,---,0.00,VWS V14.01,2013-05-28 00:45:00,
2013-05-27 18:50:00,81.5,22.0,29.85,NW,315,8.9,8.9,11,0.00,,---,0.00,VWS V14.01,2013-05-28 00:50:00,
2013-05-27 18:55:00,81.2,21.8,29.85,West,270,6.3,6.3,11,0.00,,---,0.00,VWS V14.01,2013-05-28 00:55:00,
2013-05-27 19:00:00,81.0,21.6,29.85,West,270,4.0,4.0,11,0.00,,---,0.00,VWS V14.01,2013-05-28 01:00:00,
2013-05-27 19:05:00,81.5,22.0,29.85,West,270,4.7,4.7,11,0.00,,---,0.00,VWS V14.01,2013-05-28 01:05:00,
2013-05-27 19:10:00,80.8,21.4,29.85,SW,225,4.7,4.7,11,0.00,,---,0.00,VWS V14.01,2013-05-28 01:10:00,
2013-05-27 19:15:00,79.6,22.6,29.85,WSW,248,7.8,7.8,12,0.00,,---,0.00,VWS V14.01,2013-05-28 01:15:00,
2013-05-27 19:20:00,79.4,22.4,29.85,West,270,6.5,6.5,12,0.00,,---,0.00,VWS V14.01,2013-05-28 01:20:00,
2013-05-27 19:25:00,79.6,22.6,29.85,WNW,292,9.4,9.4,12,0.00,,---,0.00,VWS V14.01,2013-05-28 01:25:00,
2013-05-27 19:30:00,78.7,21.9,29.85,NW,315,7.6,7.6,12,0.00,,---,0.00,VWS V14.01,2013-05-28 01:30:00,
2013-05-27 19:35:00,78.1,21.4,29.85,NW,315,9.2,9.2,12,0.00,,---,0.00,VWS V14.01,2013-05-28 01:35:00,
2013-05-27 19:40:00,77.8,21.2,29.85,WSW,248,4.0,4.0,12,0.00,,---,0.00,VWS V14.01,2013-05-28 01:40:00,
2013-05-27 19:45:00,77.4,20.9,29.85,WSW,248,4.9,4.9,12,0.00,,---,0.00,VWS V14.01,2013-05-28 01:45:00,
2013-05-27 19:50:00,77.0,20.5,29.85,SW,225,4.7,4.7,12,0.00,,---,0.00,VWS V14.01,2013-05-28 01:50:00,
2013-05-27 19:55:00,76.9,20.5,29.85,SW,225,3.4,3.4,12,0.00,,---,0.00,VWS V14.01,2013-05-28 01:55:00,
2013-05-27 20:00:00,76.7,20.3,29.85,SW,225,3.4,3.4,12,0.00,,---,0.00,VWS V14.01,2013-05-28 02:00:00,
2013-05-27 20:05:00,76.5,20.2,29.85,West,270,4.7,4.7,12,0.00,,---,0.00,VWS V14.01,2013-05-28 02:05:00,
2013-05-27 20:10:00,76.3,20.0,29.85,SW,225,6.5,6.5,12,0.00,,---,0.00,VWS V14.01,2013-05-28 02:10:00,
2013-05-27 20:15:00,76.0,19.8,29.85,WSW,248,1.1,1.1,12,0.00,,---,0.00,VWS V14.01,2013-05-28 02:15:00,
2013-05-27 20:20:00,75.6,19.5,29.85,WNW,292,6.3,6.3,12,0.00,,---,0.00,VWS V14.01,2013-05-28 02:20:00,
2013-05-27 20:25:00,75.6,19.5,29.85,West,270,2.5,2.5,12,0.00,,---,0.00,VWS V14.01,2013-05-28 02:25:00,
2013-05-27 20:30:00,75.2,19.1,29.85,West,270,1.1,1.1,12,0.00,,---,0.00,VWS V14.01,2013-05-28 02:30:00,
2013-05-27 20:35:00,75.1,19.1,29.85,WSW,248,0.4,0.4,12,0.00,,---,0.00,VWS V14.01,2013-05-28 02:35:00,
2013-05-27 20:40:00,74.9,18.9,29.84,SW,225,2.7,2.7,12,0.00,,---,0.00,VWS V14.01,2013-05-28 02:40:00,
2013-05-27 20:45:00,74.9,18.9,29.84,SW,225,0.2,0.2,12,0.00,,---,0.00,VWS V14.01,2013-05-28 02:45:00,
2013-05-27 20:50:00,74.5,18.6,29.85,West,270,0.2,0.2,12,0.00,,---,0.00,VWS V14.01,2013-05-28 02:50:00,
2013-05-27 20:55:00,74.2,18.4,29.84,ESE,112,0.0,0.0,12,0.00,,---,0.00,VWS V14.01,2013-05-28 02:55:00,
2013-05-27 21:00:00,74.0,18.2,29.84,NNE,22,0.0,0.0,12,0.00,,---,0.00,VWS V14.01,2013-05-28 03:00:00,
2013-05-27 21:05:00,73.8,19.9,29.85,NNE,22,0.0,0.0,13,0.00,,---,0.00,VWS V14.01,2013-05-28 03:05:00,
2013-05-27 21:10:00,73.4,19.6,29.84,NNW,338,0.4,0.4,13,0.00,,---,0.00,VWS V14.01,2013-05-28 03:10:00,
2013-05-27 21:14:00,73.4,19.6,29.84,NE,45,0.4,0.4,13,0.00,,---,0.00,VWS V14.01,2013-05-28 03:14:00,
2013-05-27 21:20:00,73.4,19.6,29.84,NNE,22,0.2,0.2,13,0.00,,---,0.00,VWS V14.01,2013-05-28 03:20:00,
2013-05-27 21:25:00,73.3,19.5,29.84,NNE,22,0.7,0.7,13,0.00,,---,0.00,VWS V14.01,2013-05-28 03:25:00,
2013-05-27 21:29:00,73.3,19.5,29.84,NE,45,0.0,0.0,13,0.00,,---,0.00,VWS V14.01,2013-05-28 03:29:00,
2013-05-27 21:35:00,73.4,19.6,29.84,NNE,22,0.2,0.2,13,0.00,,---,0.00,VWS V14.01,2013-05-28 03:35:00,
2013-05-27 21:40:00,73.3,21.3,29.85,North,0,1.1,1.1,14,0.00,,---,0.00,VWS V14.01,2013-05-28 03:40:00,
2013-05-27 21:44:00,73.1,19.4,29.85,North,0,1.1,1.1,13,0.00,,---,0.00,VWS V14.01,2013-05-28 03:44:00,
2013-05-27 21:49:00,73.1,19.4,29.85,West,270,0.0,0.0,13,0.00,,---,0.00,VWS V14.01,2013-05-28 03:49:00,
2013-05-27 21:54:00,72.7,19.1,29.85,NNE,22,0.7,0.7,13,0.00,,---,0.00,VWS V14.01,2013-05-28 03:54:00,
2013-05-27 21:59:00,72.9,19.2,29.85,NW,315,0.2,0.2,13,0.00,,---,0.00,VWS V14.01,2013-05-28 03:59:00,
2013-05-27 22:01:00,72.9,19.2,29.85,NW,315,0.0,0.0,13,0.00,,---,0.00,VWS V14.01,2013-05-28 04:01:00,
2013-05-27 22:06:00,73.1,19.4,29.85,NE,45,0.0,0.0,13,0.00,,---,0.00,VWS V14.01,2013-05-28 04:06:00,
2013-05-27 22:11:00,72.9,19.2,29.85,ENE,68,0.2,0.2,13,0.00,,---,0.00,VWS V14.01,2013-05-28 04:11:00,
2013-05-27 22:16:00,72.5,18.9,29.85,ENE,68,0.0,0.4,13,0.00,,---,0.00,VWS V14.01,2013-05-28 04:16:00,
2013-05-27 22:21:00,72.4,18.8,29.85,ENE,68,0.0,0.0,13,0.00,,---,0.00,VWS V14.01,2013-05-28 04:21:00,
2013-05-27 22:26:00,71.8,20.1,29.85,East,90,0.2,0.2,14,0.00,,---,0.00,VWS V14.01,2013-05-28 04:26:00,
2013-05-27 22:31:00,71.8,21.7,29.85,ENE,68,0.7,0.7,15,0.00,,---,0.00,VWS V14.01,2013-05-28 04:31:00,
2013-05-27 22:36:00,71.8,21.7,29.85,ENE,68,0.7,0.7,15,0.00,,---,0.00,VWS V14.01,2013-05-28 04:36:00,
2013-05-27 22:41:00,72.4,18.8,29.85,WNW,292,0.2,0.2,13,0.00,,---,0.00,VWS V14.01,2013-05-28 04:41:00,
2013-05-27 22:46:00,71.8,21.7,29.85,NNW,338,0.4,0.4,15,0.00,,---,0.00,VWS V14.01,2013-05-28 04:46:00,
2013-05-27 22:51:00,71.1,21.1,29.86,NNE,22,1.1,1.1,15,0.00,,---,0.00,VWS V14.01,2013-05-28 04:51:00,
2013-05-27 22:56:00,70.6,20.7,29.85,NNE,22,0.0,0.0,15,0.00,,---,0.00,VWS V14.01,2013-05-28 04:56:00,
2013-05-27 23:01:00,70.0,20.3,29.86,NNE,22,0.0,0.0,15,0.00,,---,0.00,VWS V14.01,2013-05-28 05:01:00,
2013-05-27 23:06:00,69.7,21.5,29.86,NNW,338,0.0,0.0,16,0.00,,---,0.00,VWS V14.01,2013-05-28 05:06:00,
2013-05-27 23:11:00,69.3,21.2,29.86,NNW,338,0.0,0.0,16,0.00,,---,0.00,VWS V14.01,2013-05-28 05:11:00,
2013-05-27 23:16:00,68.6,20.6,29.86,NNW,338,0.0,0.0,16,0.00,,---,0.00,VWS V14.01,2013-05-28 05:16:00,
2013-05-27 23:21:00,68.4,20.5,29.87,North,0,0.0,0.0,16,0.00,,---,0.00,VWS V14.01,2013-05-28 05:21:00,
2013-05-27 23:26:00,68.0,21.6,29.87,North,0,0.0,0.0,17,0.00,,---,0.00,VWS V14.01,2013-05-28 05:26:00,
2013-05-27 23:31:00,68.0,20.2,29.87,NNE,22,0.2,0.2,16,0.00,,---,0.00,VWS V14.01,2013-05-28 05:31:00,
2013-05-27 23:36:00,68.4,20.5,29.87,NW,315,0.7,0.7,16,0.00,,---,0.00,VWS V14.01,2013-05-28 05:36:00,
2013-05-27 23:41:00,68.8,20.8,29.87,NW,315,0.4,0.4,16,0.00,,---,0.00,VWS V14.01,2013-05-28 05:41:00,
2013-05-27 23:46:00,68.8,20.8,29.87,NW,315,0.4,0.4,16,0.00,,---,0.00,VWS V14.01,2013-05-28 05:46:00,
2013-05-27 23:51:00,68.9,19.4,29.87,WNW,292,0.4,0.4,15,0.00,,---,0.00,VWS V14.01,2013-05-28 05:51:00,
2013-05-27 23:56:00,68.9,20.9,29.88,WSW,248,0.7,0.7,16,0.00,,---,0.00,VWS V14.01,2013-05-28 05:56:00,